Time;durP1;ratioP1;P1;durP2;ratioP2;P2;SDS_P1;SDS_P2;PMS_P1;PMS_P2;Temp;Humidity;BMP_temperature;BMP_pressure;BME280_temperature;BME280_humidity;BME280_pressure;Samples;Min_cycle;Max_cycle;Signal;HPM_P1;HPM_P2
2024/02/13 00:00:10;;;;;;;19.40;17.50;;;8.20;99.90;;;;;;4737930;30;20521;-45
2024/02/13 00:02:37;;;;;;;19.53;17.77;;;8.10;99.90;;;;;;4735343;30;21013;-44
2024/02/13 00:05:09;;;;;;;19.70;17.90;;;8.00;99.90;;;;;;4729459;30;20463;-43
2024/02/13 00:07:36;;;;;;;17.67;16.00;;;8.00;99.90;;;;;;4729505;30;20475;-47
2024/02/13 00:10:02;;;;;;;19.10;17.40;;;7.90;99.90;;;;;;4728317;30;20439;-44
2024/02/13 00:12:28;;;;;;;18.60;16.90;;;7.90;99.90;;;;;;4735457;30;20707;-45
2024/02/13 00:14:55;;;;;;;18.10;16.60;;;7.90;99.90;;;;;;4735928;30;20439;-43
2024/02/13 00:17:23;;;;;;;18.63;17.07;;;7.90;99.90;;;;;;4731089;30;20423;-46
2024/02/13 00:19:49;;;;;;;19.07;17.47;;;7.90;99.90;;;;;;4734232;30;20639;-44
2024/02/13 00:22:15;;;;;;;18.47;16.87;;;7.80;1.00;;;;;;4740665;30;20435;-48
2024/02/13 00:24:43;;;;;;;18.70;17.00;;;7.80;1.00;;;;;;4732370;30;20760;-45
2024/02/13 00:27:09;;;;;;;17.83;16.17;;;7.90;1.00;;;;;;4733413;30;20197;-45
2024/02/13 00:29:35;;;;;;;20.03;18.03;;;7.80;99.90;;;;;;4736317;30;20443;-45
2024/02/13 00:32:00;;;;;;;19.17;17.27;;;7.70;1.00;;;;;;4738343;30;20530;-47
2024/02/13 00:34:26;;;;;;;19.17;17.47;;;7.80;1.00;;;;;;4733306;30;20768;-46
2024/02/13 00:36:52;;;;;;;18.23;16.70;;;7.70;1.00;;;;;;4735584;30;20430;-42
2024/02/13 00:39:18;;;;;;;19.13;17.40;;;7.70;1.00;;;;;;4747119;30;20990;-49
2024/02/13 00:41:44;;;;;;;19.33;17.67;;;7.60;1.00;;;;;;4729925;30;20194;-45
2024/02/13 00:44:11;;;;;;;19.03;17.23;;;7.60;1.00;;;;;;4737718;30;20426;-45
2024/02/13 00:46:37;;;;;;;18.63;17.13;;;7.50;1.00;;;;;;4735298;30;20495;-44
2024/02/13 00:49:03;;;;;;;19.20;17.50;;;7.50;1.00;;;;;;4737065;30;20439;-44
2024/02/13 00:51:29;;;;;;;19.70;17.90;;;7.50;1.00;;;;;;4735627;30;20836;-45
2024/02/13 00:53:56;;;;;;;17.97;16.37;;;7.50;1.00;;;;;;4739822;30;20517;-43
2024/02/13 00:56:21;;;;;;;18.70;16.93;;;7.40;1.00;;;;;;4736409;30;20484;-45
2024/02/13 00:58:47;;;;;;;18.70;17.10;;;7.50;1.00;;;;;;4739712;30;20435;-43
2024/02/13 01:01:13;;;;;;;19.73;17.90;;;7.50;1.00;;;;;;4726945;30;20197;-43
2024/02/13 01:03:40;;;;;;;18.50;17.00;;;7.40;1.00;;;;;;4731403;30;20200;-46
2024/02/13 01:06:07;;;;;;;20.40;17.17;;;7.40;1.00;;;;;;4730840;30;20448;-46
2024/02/13 01:08:34;;;;;;;18.70;17.10;;;7.40;1.00;;;;;;4729967;30;20450;-43
2024/02/13 01:10:59;;;;;;;18.40;16.53;;;7.30;1.00;;;;;;4739648;30;20455;-48
2024/02/13 01:13:26;;;;;;;18.40;16.80;;;7.30;1.00;;;;;;4729837;30;20793;-46
2024/02/13 01:15:52;;;;;;;19.57;17.73;;;7.30;1.00;;;;;;4730720;30;20290;-47
2024/02/13 01:18:17;;;;;;;19.30;17.60;;;7.20;1.00;;;;;;4732869;30;20458;-45
2024/02/13 01:20:43;;;;;;;18.73;16.97;;;7.30;1.00;;;;;;4732474;30;20334;-48
2024/02/13 01:23:11;;;;;;;19.60;17.80;;;7.20;1.00;;;;;;4728426;30;20237;-49
2024/02/13 01:25:38;;;;;;;18.83;17.13;;;7.20;1.00;;;;;;4729638;30;20217;-42
2024/02/13 01:28:07;;;;;;;19.60;17.80;;;7.20;1.00;;;;;;4739377;30;20439;-42
2024/02/13 01:30:34;;;;;;;19.07;17.27;;;7.10;1.00;;;;;;4732508;30;20451;-45
2024/02/13 01:32:59;;;;;;;19.00;17.30;;;7.00;1.00;;;;;;4739347;30;20575;-47
2024/02/13 01:35:25;;;;;;;18.17;16.57;;;7.00;1.00;;;;;;4746207;30;20983;-43
2024/02/13 01:37:51;;;;;;;18.47;16.77;;;7.00;1.00;;;;;;4739469;30;20220;-45
2024/02/13 01:40:17;;;;;;;19.67;17.90;;;6.90;1.00;;;;;;4736540;30;20507;-43
2024/02/13 01:42:48;;;;;;;19.50;17.67;;;6.80;1.00;;;;;;4738240;30;20209;-46
2024/02/13 01:45:14;;;;;;;18.63;17.13;;;6.70;1.00;;;;;;4734024;30;20823;-46
2024/02/13 01:47:42;;;;;;;18.37;16.90;;;6.70;1.00;;;;;;4731503;30;20438;-43
2024/02/13 01:50:08;;;;;;;17.97;16.33;;;6.70;1.00;;;;;;4738100;30;20204;-43
2024/02/13 01:52:35;;;;;;;18.67;17.07;;;6.60;1.00;;;;;;4729775;30;20970;-45
2024/02/13 01:55:03;;;;;;;20.00;18.10;;;6.50;1.00;;;;;;4731019;30;20462;-47
2024/02/13 01:57:32;;;;;;;18.10;16.53;;;6.40;1.00;;;;;;4733553;30;20989;-45
2024/02/13 01:59:58;;;;;;;17.80;16.10;;;6.40;1.00;;;;;;4745254;30;20473;-46
2024/02/13 02:02:24;;;;;;;19.53;17.57;;;6.40;1.00;;;;;;4730490;30;20958;-43
2024/02/13 02:04:50;;;;;;;20.30;18.40;;;6.30;1.00;;;;;;4739985;30;20450;-43
2024/02/13 02:07:16;;;;;;;19.77;18.07;;;6.20;1.00;;;;;;4728327;30;20221;-44
2024/02/13 02:09:45;;;;;;;19.50;17.60;;;6.20;1.00;;;;;;4736612;30;20793;-46
2024/02/13 02:12:11;;;;;;;20.33;18.53;;;6.20;1.00;;;;;;4726999;30;20463;-47
2024/02/13 02:14:38;;;;;;;20.33;18.20;;;6.10;1.00;;;;;;4738289;30;20914;-43
2024/02/13 02:17:10;;;;;;;20.77;18.95;;;6.10;1.00;;;;;;4734612;30;20290;-43
2024/02/13 02:19:36;;;;;;;20.70;18.52;;;6.10;6.30;;;;;;4730812;30;20184;-48
2024/02/13 02:22:03;;;;;;;21.77;19.63;;;6.00;12.70;;;;;;4733342;30;20821;-45
2024/02/13 02:24:30;;;;;;;20.33;18.23;;;6.00;19.00;;;;;;4741764;30;20192;-47
2024/02/13 02:26:56;;;;;;;19.93;18.00;;;6.00;24.70;;;;;;4732622;30;20208;-42
2024/02/13 02:29:23;;;;;;;19.65;17.73;;;6.00;33.30;;;;;;4737606;30;20913;-45
2024/02/13 02:31:49;;;;;;;19.97;17.90;;;6.00;45.50;;;;;;4734051;30;20629;-43
2024/02/13 02:34:18;;;;;;;20.40;17.80;;;6.10;47.80;;;;;;4738350;30;20479;-48
2024/02/13 02:36:45;;;;;;;20.27;18.33;;;6.10;50.80;;;;;;4735936;30;20189;-47
2024/02/13 02:39:11;;;;;;;19.00;17.10;;;6.20;56.80;;;;;;4739230;30;20446;-44
2024/02/13 02:41:38;;;;;;;21.20;19.03;;;6.20;50.60;;;;;;4736613;30;21089;-55
2024/02/13 02:44:04;;;;;;;19.83;17.93;;;6.30;44.10;;;;;;4742214;30;20805;-51
2024/02/13 02:46:29;;;;;;;19.30;17.70;;;6.30;40.10;;;;;;4734616;30;20447;-52
2024/02/13 02:48:55;;;;;;;23.10;18.77;;;6.30;32.90;;;;;;4727507;30;20505;-56
2024/02/13 02:51:21;;;;;;;19.07;17.27;;;6.30;32.00;;;;;;4733046;30;20566;-55
2024/02/13 02:53:47;;;;;;;19.10;17.50;;;6.40;31.30;;;;;;4729802;30;20219;-50
2024/02/13 02:56:15;;;;;;;20.47;18.37;;;6.40;29.10;;;;;;4725638;30;20495;-52
2024/02/13 02:58:42;;;;;;;19.50;17.50;;;6.50;22.90;;;;;;4737133;30;20200;-53
2024/02/13 03:01:08;;;;;;;21.93;19.67;;;6.60;5.20;;;;;;4738861;30;20435;-54
2024/02/13 03:03:34;;;;;;;19.47;17.30;;;6.70;1.00;;;;;;4738442;30;21445;-48
2024/02/13 03:06:00;;;;;;;18.80;17.20;;;6.70;1.00;;;;;;4741255;30;20522;-52
2024/02/13 03:08:25;;;;;;;19.40;17.60;;;6.80;1.00;;;;;;4730855;30;20484;-51
2024/02/13 03:10:51;;;;;;;22.90;18.10;;;6.90;1.00;;;;;;4726347;30;20455;-53
2024/02/13 03:13:17;;;;;;;21.10;19.00;;;7.00;1.00;;;;;;4733600;30;20560;-56
2024/02/13 03:15:44;;;;;;;20.70;18.50;;;6.90;1.00;;;;;;4727170;30;20687;-57
2024/02/13 03:18:10;;;;;;;21.20;19.10;;;6.90;1.00;;;;;;4730765;30;20442;-53
2024/02/13 03:20:36;;;;;;;18.87;17.17;;;7.00;1.00;;;;;;4729124;30;21152;-54
2024/02/13 03:23:01;;;;;;;19.50;17.80;;;7.10;1.00;;;;;;4736354;30;20735;-54
2024/02/13 03:25:27;;;;;;;18.40;16.70;;;7.10;1.00;;;;;;4729638;30;20689;-48
2024/02/13 03:27:53;;;;;;;21.03;18.10;;;7.10;1.00;;;;;;4737932;30;20196;-51
2024/02/13 03:30:19;;;;;;;19.13;17.33;;;7.10;1.00;;;;;;4741633;30;20197;-57
2024/02/13 03:32:45;;;;;;;20.00;18.20;;;7.10;1.00;;;;;;4738611;30;21387;-56
2024/02/13 03:35:10;;;;;;;18.60;16.97;;;7.00;1.00;;;;;;4740843;30;20242;-52
2024/02/13 03:37:36;;;;;;;19.87;17.90;;;7.10;1.00;;;;;;4734514;30;20189;-47
2024/02/13 03:40:06;;;;;;;20.23;18.40;;;7.10;99.90;;;;;;4735611;30;20193;-53
2024/02/13 03:42:32;;;;;;;19.00;17.30;;;7.10;99.90;;;;;;4735718;30;20250;-56
2024/02/13 03:44:57;;;;;;;18.60;16.90;;;7.20;99.90;;;;;;4735850;30;20782;-53
2024/02/13 03:47:23;;;;;;;19.17;17.43;;;7.20;99.90;;;;;;4731878;30;20428;-50
2024/02/13 03:49:48;;;;;;;19.60;17.73;;;7.20;1.00;;;;;;4731457;30;20220;-56
2024/02/13 03:52:14;;;;;;;19.67;17.87;;;7.20;1.00;;;;;;4737203;30;20737;-55
2024/02/13 03:54:40;;;;;;;18.50;17.00;;;7.20;1.00;;;;;;4735848;30;20312;-46
2024/02/13 03:57:06;;;;;;;18.43;16.80;;;7.20;1.00;;;;;;4740427;30;20513;-54
2024/02/13 03:59:32;;;;;;;19.63;17.73;;;7.10;99.90;;;;;;4724740;30;21109;-54
2024/02/13 04:01:59;;;;;;;19.10;17.20;;;7.10;99.90;;;;;;4738538;30;20204;-56
2024/02/13 04:04:25;;;;;;;18.63;17.00;;;7.10;99.90;;;;;;4734089;30;20233;-56
2024/02/13 04:06:50;;;;;;;17.93;16.33;;;7.10;99.90;;;;;;4724149;30;20521;-51
2024/02/13 04:09:17;;;;;;;19.57;17.87;;;7.10;99.90;;;;;;4735931;30;20459;-54
2024/02/13 04:11:45;;;;;;;18.63;16.97;;;7.10;99.90;;;;;;4733823;30;20188;-53
2024/02/13 04:14:11;;;;;;;19.47;17.60;;;7.20;99.90;;;;;;4739567;30;20993;-53
2024/02/13 04:16:41;;;;;;;18.57;17.00;;;7.10;99.90;;;;;;4730804;30;20795;-54
2024/02/13 04:19:07;;;;;;;18.10;16.50;;;7.10;99.90;;;;;;4726115;30;20798;-53
2024/02/13 04:21:33;;;;;;;18.80;17.10;;;7.20;99.90;;;;;;4740279;30;20463;-54
2024/02/13 04:23:59;;;;;;;18.07;16.53;;;7.20;99.90;;;;;;4729209;30;20443;-54
2024/02/13 04:26:24;;;;;;;18.00;16.47;;;7.20;99.90;;;;;;4739616;30;20680;-55
2024/02/13 04:28:50;;;;;;;18.73;17.07;;;7.20;62.40;;;;;;4732596;30;20201;-53
2024/02/13 04:31:16;;;;;;;19.30;17.50;;;7.20;1.00;;;;;;4740533;30;20606;-55
2024/02/13 04:33:43;;;;;;;17.80;16.30;;;7.20;1.00;;;;;;4730142;30;20997;-53
2024/02/13 04:36:08;;;;;;;18.90;16.90;;;7.20;1.00;;;;;;4734582;30;20220;-52
2024/02/13 04:38:34;;;;;;;17.40;16.00;;;7.20;1.00;;;;;;4735155;30;20539;-56
2024/02/13 04:40:59;;;;;;;16.87;15.40;;;7.10;1.00;;;;;;4739906;30;20200;-54
2024/02/13 04:43:26;;;;;;;17.60;16.10;;;7.10;99.90;;;;;;4737823;30;20286;-55
2024/02/13 04:45:52;;;;;;;18.17;16.40;;;7.10;99.90;;;;;;4740247;30;20258;-53
2024/02/13 04:48:18;;;;;;;17.73;16.03;;;7.10;99.90;;;;;;4732398;30;20444;-54
2024/02/13 04:50:44;;;;;;;17.97;16.50;;;7.10;99.90;;;;;;4724920;30;20297;-54
2024/02/13 04:53:09;;;;;;;17.17;15.67;;;7.00;99.90;;;;;;4726515;30;20947;-56
2024/02/13 04:55:35;;;;;;;17.90;16.00;;;7.00;1.00;;;;;;4723101;30;20198;-53
2024/02/13 04:58:07;;;;;;;16.13;14.73;;;7.10;99.90;;;;;;4735287;30;20200;-53
2024/02/13 05:00:36;;;;;;;15.83;14.53;;;7.00;1.00;;;;;;4738423;30;20641;-54
2024/02/13 05:03:06;;;;;;;16.47;15.10;;;7.00;99.90;;;;;;4737897;30;20442;-54
2024/02/13 05:08:16;;;;;;;16.93;15.40;;;6.80;1.00;;;;;;4723662;30;20538;-54
2024/02/13 05:10:42;;;;;;;16.60;15.30;;;6.70;1.00;;;;;;4723871;30;20464;-53
2024/02/13 05:13:14;;;;;;;16.73;15.27;;;6.70;1.00;;;;;;4738166;30;20486;-55
2024/02/13 05:15:40;;;;;;;17.73;16.13;;;6.70;1.00;;;;;;4735365;30;20184;-55
2024/02/13 05:18:06;;;;;;;17.10;15.50;;;6.70;1.00;;;;;;4729821;30;21536;-53
2024/02/13 05:20:32;;;;;;;16.13;14.63;;;6.70;1.00;;;;;;4729546;30;20590;-53
2024/02/13 05:22:59;;;;;;;17.40;15.80;;;6.70;1.00;;;;;;4731444;30;20442;-54
2024/02/13 05:25:26;;;;;;;17.75;16.05;;;6.80;1.00;;;;;;4733428;30;20629;-55
2024/02/13 05:27:52;;;;;;;17.17;15.77;;;6.80;1.00;;;;;;4739191;30;20197;-50
2024/02/13 05:30:18;;;;;;;17.50;15.87;;;6.80;1.00;;;;;;4734313;30;20476;-55
2024/02/13 05:32:44;;;;;;;15.77;14.20;;;6.70;1.00;;;;;;4733529;30;20478;-51
2024/02/13 05:35:09;;;;;;;16.90;15.30;;;6.80;1.00;;;;;;4729723;30;20436;-53
2024/02/13 05:37:37;;;;;;;16.43;15.13;;;6.70;1.00;;;;;;4731999;30;20192;-44
2024/02/13 05:40:05;;;;;;;16.07;14.77;;;6.70;1.00;;;;;;4734645;30;20275;-42
2024/02/13 05:42:30;;;;;;;15.37;14.10;;;6.70;99.90;;;;;;4729248;30;20465;-43
2024/02/13 05:44:57;;;;;;;16.80;15.50;;;6.70;1.00;;;;;;4728263;30;20438;-45
2024/02/13 05:47:23;;;;;;;15.97;14.83;;;6.70;99.90;;;;;;4722916;30;20189;-43
2024/02/13 05:49:49;;;;;;;14.43;13.27;;;6.70;99.90;;;;;;4723364;30;20423;-44
2024/02/13 05:52:16;;;;;;;16.57;15.30;;;6.70;99.90;;;;;;4722097;30;20435;-46
2024/02/13 05:54:42;;;;;;;15.70;14.43;;;6.70;99.90;;;;;;4722486;30;20423;-44
2024/02/13 05:57:07;;;;;;;16.10;14.70;;;6.70;99.90;;;;;;4731092;30;20851;-42
2024/02/13 05:59:34;;;;;;;15.27;14.13;;;6.80;99.90;;;;;;4730766;30;21228;-45
2024/02/13 06:01:59;;;;;;;14.43;13.33;;;6.80;99.90;;;;;;4722744;30;20378;-42
2024/02/13 06:04:26;;;;;;;14.60;13.60;;;6.90;89.70;;;;;;4722232;30;20431;-48
2024/02/13 06:06:52;;;;;;;15.67;14.37;;;6.90;1.00;;;;;;4721949;30;20234;-44
2024/02/13 06:09:21;;;;;;;15.60;14.30;;;6.90;1.00;;;;;;4725969;30;20466;-44
2024/02/13 06:11:48;;;;;;;14.60;13.60;;;6.90;1.00;;;;;;4733578;30;20427;-47
2024/02/13 06:14:14;;;;;;;15.07;13.77;;;6.90;99.90;;;;;;4737853;30;20670;-43
2024/02/13 06:16:39;;;;;;;15.30;14.23;;;6.90;99.90;;;;;;4726835;30;20443;-43
2024/02/13 06:19:05;;;;;;;17.07;15.73;;;6.90;1.00;;;;;;4738421;30;20984;-42
2024/02/13 06:21:32;;;;;;;14.47;13.40;;;6.90;99.90;;;;;;4727235;30;20222;-43
2024/02/13 06:23:58;;;;;;;16.00;14.90;;;6.80;1.00;;;;;;4738857;30;20482;-41
2024/02/13 06:26:24;;;;;;;15.47;14.27;;;6.80;1.00;;;;;;4727247;30;20507;-44
2024/02/13 06:28:50;;;;;;;16.33;15.10;;;6.90;99.90;;;;;;4738093;30;20561;-42
2024/02/13 06:31:16;;;;;;;15.67;14.47;;;6.80;1.00;;;;;;4732585;30;20434;-42
2024/02/13 06:33:42;;;;;;;15.63;14.33;;;6.80;99.90;;;;;;4737774;30;20266;-42
2024/02/13 06:36:08;;;;;;;15.37;14.33;;;6.90;17.30;;;;;;4730370;30;20434;-43
2024/02/13 06:38:35;;;;;;;14.80;13.60;;;6.90;1.00;;;;;;4737072;30;20295;-55
2024/02/13 06:41:05;;;;;;;16.60;15.20;;;6.80;1.00;;;;;;4729495;30;20437;-53
2024/02/13 06:43:33;;;;;;;17.40;16.00;;;6.90;1.00;;;;;;4727826;30;20447;-50
2024/02/13 06:45:59;;;;;;;15.43;14.23;;;7.00;1.00;;;;;;4717074;30;20451;-50
2024/02/13 06:48:24;;;;;;;16.10;14.73;;;6.90;1.00;;;;;;4730867;30;20904;-54
2024/02/13 06:50:50;;;;;;;16.63;15.43;;;6.90;99.90;;;;;;4737961;30;20200;-49
2024/02/13 06:53:16;;;;;;;14.70;13.60;;;6.90;99.90;;;;;;4742076;30;20698;-53
2024/02/13 06:55:42;;;;;;;17.40;16.00;;;6.90;1.00;;;;;;4740464;30;20224;-50
2024/02/13 06:58:08;;;;;;;15.70;14.50;;;6.90;1.00;;;;;;4742363;30;20250;-53
2024/02/13 07:00:33;;;;;;;14.40;13.20;;;6.90;36.20;;;;;;4741454;30;20428;-53
2024/02/13 07:02:59;;;;;;;15.17;14.00;;;6.90;99.90;;;;;;4735508;30;20227;-45
2024/02/13 07:05:27;;;;;;;15.30;14.20;;;6.90;99.90;;;;;;4740127;30;20196;-43
2024/02/13 07:07:52;;;;;;;15.57;14.47;;;6.90;33.80;;;;;;4726894;30;20961;-44
2024/02/13 07:10:18;;;;;;;15.37;14.37;;;6.90;99.90;;;;;;4741334;30;20526;-45
2024/02/13 07:12:44;;;;;;;15.73;14.33;;;6.90;99.90;;;;;;4726431;30;20224;-42
2024/02/13 07:15:09;;;;;;;16.13;14.73;;;6.90;99.90;;;;;;4741449;30;20314;-44
2024/02/13 07:17:35;;;;;;;15.00;13.90;;;7.00;99.90;;;;;;4737430;30;20220;-44
2024/02/13 07:20:01;;;;;;;15.47;14.37;;;7.00;22.20;;;;;;4741452;30;20188;-47
2024/02/13 07:22:27;;;;;;;15.80;14.50;;;7.10;99.90;;;;;;4735409;30;20189;-43
2024/02/13 07:24:52;;;;;;;16.40;15.10;;;7.00;1.00;;;;;;4740106;30;20433;-47
2024/02/13 07:27:18;;;;;;;15.73;14.63;;;7.00;1.00;;;;;;4734311;30;20189;-46
2024/02/13 07:29:44;;;;;;;14.50;13.60;;;7.00;1.00;;;;;;4737438;30;20201;-45
2024/02/13 07:32:13;;;;;;;16.13;14.77;;;7.00;1.00;;;;;;4735702;30;20259;-45
2024/02/13 07:34:40;;;;;;;15.67;14.37;;;7.00;1.00;;;;;;4740989;30;20213;-41
2024/02/13 07:37:07;;;;;;;16.60;15.40;;;7.00;1.00;;;;;;4741010;30;20868;-44
2024/02/13 07:39:33;;;;;;;16.13;14.50;;;7.00;99.90;;;;;;4731845;30;20494;-44
2024/02/13 07:41:59;;;;;;;16.60;15.30;;;7.00;1.00;;;;;;4725166;30;20960;-44
2024/02/13 07:44:27;;;;;;;16.47;15.17;;;7.00;99.90;;;;;;4734082;30;20454;-42
2024/02/13 07:46:54;;;;;;;16.13;14.73;;;7.00;1.00;;;;;;4733921;30;20495;-46
2024/02/13 07:49:19;;;;;;;15.23;14.17;;;7.00;1.00;;;;;;4734416;30;20462;-45
2024/02/13 07:51:45;;;;;;;15.90;14.80;;;7.10;99.90;;;;;;4734672;30;20543;-49
2024/02/13 07:54:14;;;;;;;15.70;14.50;;;7.10;99.90;;;;;;4737484;30;20744;-44
2024/02/13 07:56:41;;;;;;;15.93;14.70;;;7.10;99.90;;;;;;4732556;30;20240;-55
2024/02/13 07:59:06;;;;;;;14.37;13.20;;;7.20;99.90;;;;;;4739395;30;20430;-49
2024/02/13 08:01:33;;;;;;;15.97;14.87;;;7.30;99.90;;;;;;4730351;30;20436;-44
2024/02/13 08:04:00;;;;;;;14.70;13.70;;;7.40;1.00;;;;;;4739382;30;20181;-46
2024/02/13 08:06:26;;;;;;;16.03;14.60;;;7.50;99.90;;;;;;4737023;30;21011;-45
2024/02/13 08:08:51;;;;;;;14.70;13.73;;;7.60;99.90;;;;;;4733280;30;20480;-44
2024/02/13 08:11:17;;;;;;;15.00;13.80;;;7.70;92.80;;;;;;4740388;30;20687;-47
2024/02/13 08:13:44;;;;;;;14.77;13.50;;;7.80;1.00;;;;;;4730361;30;20521;-48
2024/02/13 08:16:13;;;;;;;16.33;14.70;;;7.80;1.00;;;;;;4734423;30;20220;-53
2024/02/13 08:18:40;;;;;;;13.60;12.60;;;7.80;1.00;;;;;;4733849;30;20494;-52
2024/02/13 08:21:06;;;;;;;14.13;13.23;;;7.80;1.00;;;;;;4740531;30;20470;-54
2024/02/13 08:23:33;;;;;;;14.77;13.67;;;7.80;1.00;;;;;;4735851;30;20517;-50
2024/02/13 08:25:58;;;;;;;15.10;14.20;;;7.80;99.90;;;;;;4753705;30;20211;-55
2024/02/13 08:28:24;;;;;;;14.40;13.50;;;7.70;1.00;;;;;;4730214;30;20962;-53
2024/02/13 08:30:50;;;;;;;15.53;14.43;;;7.70;99.90;;;;;;4731109;30;21025;-52
2024/02/13 08:33:19;;;;;;;14.87;13.87;;;7.70;99.90;;;;;;4731977;30;20538;-53
2024/02/13 08:35:46;;;;;;;14.50;13.50;;;7.80;99.90;;;;;;4739324;30;20189;-48
2024/02/13 08:38:12;;;;;;;14.50;13.60;;;7.80;99.90;;;;;;4740089;30;20966;-52
2024/02/13 08:40:37;;;;;;;15.73;14.33;;;7.90;99.90;;;;;;4738138;30;20501;-53
2024/02/13 08:43:04;;;;;;;14.87;13.87;;;7.90;99.90;;;;;;4724172;30;20480;-54
2024/02/13 08:45:30;;;;;;;15.50;14.20;;;7.90;99.90;;;;;;4729656;30;20232;-53
2024/02/13 08:47:55;;;;;;;15.33;14.00;;;7.90;99.90;;;;;;4732154;30;20493;-53
2024/02/13 08:50:21;;;;;;;15.97;14.60;;;7.90;99.90;;;;;;4739788;30;20439;-54
2024/02/13 08:52:48;;;;;;;14.93;13.93;;;8.00;99.90;;;;;;4733715;30;20772;-54
2024/02/13 08:55:14;;;;;;;15.93;14.60;;;8.00;99.90;;;;;;4738893;30;20470;-53
2024/02/13 08:57:40;;;;;;;14.97;13.90;;;8.10;99.90;;;;;;4734806;30;20472;-53
2024/02/13 09:00:09;;;;;;;15.40;14.30;;;8.20;99.90;;;;;;4739126;30;20430;-55
2024/02/13 09:02:36;;;;;;;14.53;13.63;;;8.30;99.90;;;;;;4724808;30;20879;-55
2024/02/13 09:05:01;;;;;;;15.77;14.57;;;8.30;99.90;;;;;;4739504;30;20544;-52
2024/02/13 09:07:28;;;;;;;14.93;13.93;;;8.30;44.80;;;;;;4727854;30;20447;-48
2024/02/13 09:09:55;;;;;;;14.57;13.60;;;8.20;63.40;;;;;;4739063;30;20551;-52
2024/02/13 09:12:21;;;;;;;13.70;12.80;;;8.10;43.00;;;;;;4737801;30;20809;-51
2024/02/13 09:14:47;;;;;;;14.67;13.67;;;8.10;44.00;;;;;;4733644;30;20470;-48
2024/02/13 09:17:13;;;;;;;15.20;14.20;;;8.00;46.40;;;;;;4736247;30;20184;-54
2024/02/13 09:19:42;;;;;;;15.37;14.03;;;8.20;66.10;;;;;;4728599;30;20205;-53
2024/02/13 09:22:08;;;;;;;15.07;14.00;;;8.60;94.60;;;;;;4739646;30;20740;-54
2024/02/13 09:24:34;;;;;;;14.23;13.30;;;9.10;1.00;;;;;;4743257;30;20454;-48
2024/02/13 09:27:00;;;;;;;16.00;14.50;;;9.30;1.00;;;;;;4739168;30;20512;-52
2024/02/13 09:29:25;;;;;;;14.70;13.70;;;9.60;1.00;;;;;;4740476;30;20383;-53
2024/02/13 09:31:51;;;;;;;14.57;13.57;;;9.70;1.00;;;;;;4723446;30;20193;-54
2024/02/13 09:34:16;;;;;;;14.13;13.23;;;9.80;1.00;;;;;;4732760;30;20216;-56
2024/02/13 09:36:43;;;;;;;15.70;14.23;;;10.30;1.00;;;;;;4739570;30;20677;-48
2024/02/13 09:39:11;;;;;;;14.43;13.40;;;10.80;1.00;;;;;;4734377;30;20495;-55
2024/02/13 09:41:40;;;;;;;14.70;13.70;;;11.20;1.00;;;;;;4738405;30;20590;-55
2024/02/13 09:44:09;;;;;;;13.90;12.90;;;11.20;1.00;;;;;;4736073;30;20433;-53
2024/02/13 09:46:38;;;;;;;15.47;14.20;;;11.50;1.00;;;;;;4734752;30;20453;-53
2024/02/13 09:49:04;;;;;;;14.53;13.30;;;11.90;1.00;;;;;;4737469;30;20499;-54
2024/02/13 09:51:33;;;;;;;15.50;14.50;;;11.90;1.00;;;;;;4737649;30;20786;-51
2024/02/13 09:54:02;;;;;;;15.60;14.20;;;11.70;1.00;;;;;;4731756;30;20475;-54
2024/02/13 09:56:28;;;;;;;14.53;13.33;;;11.90;1.00;;;;;;4735370;30;21140;-53
2024/02/13 09:58:54;;;;;;;13.30;12.40;;;12.20;1.00;;;;;;4732863;30;20423;-51
2024/02/13 10:01:20;;;;;;;14.07;13.17;;;12.90;1.00;;;;;;4727873;30;20446;-54
2024/02/13 10:03:47;;;;;;;15.10;14.00;;;13.40;1.00;;;;;;4728217;30;20440;-48
2024/02/13 10:06:13;;;;;;;14.07;13.17;;;14.10;1.00;;;;;;4733859;30;20427;-48
2024/02/13 10:08:39;;;;;;;13.60;12.70;;;13.90;99.90;;;;;;4726281;30;20428;-45
2024/02/13 10:11:12;;;;;;;14.50;13.50;;;14.20;99.90;;;;;;4735431;30;20435;-50
2024/02/13 10:13:39;;;;;;;14.20;13.10;;;14.20;99.90;;;;;;4735683;30;20476;-46
2024/02/13 10:16:05;;;;;;;14.87;13.60;;;13.30;99.90;;;;;;4736692;30;20434;-43
2024/02/13 10:18:33;;;;;;;13.57;12.77;;;13.20;99.90;;;;;;4735771;30;20504;-47
2024/02/13 10:21:00;;;;;;;14.10;13.00;;;12.70;99.90;;;;;;4731933;30;20452;-45
2024/02/13 10:23:29;;;;;;;14.30;13.07;;;12.00;99.90;;;;;;4731278;30;20492;-47
2024/02/13 10:25:55;;;;;;;15.13;14.13;;;11.50;99.90;;;;;;4740610;30;20419;-43
2024/02/13 10:28:22;;;;;;;14.40;13.40;;;11.10;99.90;;;;;;4742680;30;20492;-43
2024/02/13 10:30:52;;;;;;;13.93;13.03;;;10.80;99.90;;;;;;4735247;30;20286;-52
2024/02/13 10:33:19;;;;;;;13.80;12.80;;;11.10;99.90;;;;;;4736005;30;20474;-56
2024/02/13 10:35:52;;;;;;;12.63;11.93;;;11.50;99.90;;;;;;4729995;30;20911;-56
2024/02/13 10:38:23;;;;;;;13.73;12.93;;;11.30;99.90;;;;;;4737048;30;20428;-56
2024/02/13 10:40:51;;;;;;;12.13;11.43;;;11.30;99.90;;;;;;4733337;30;20434;-51
2024/02/13 10:43:17;;;;;;;13.63;12.53;;;11.30;99.90;;;;;;4733710;30;20443;-54
2024/02/13 10:45:50;;;;;;;13.33;12.43;;;11.40;99.90;;;;;;4732566;30;20468;-54
2024/02/13 10:48:25;;;;;;;13.73;12.73;;;11.30;99.90;;;;;;4739189;30;20824;-54
2024/02/13 10:50:52;;;;;;;13.30;12.30;;;11.90;99.90;;;;;;4733228;30;20504;-53
2024/02/13 10:53:19;;;;;;;13.00;12.20;;;12.50;99.90;;;;;;4742089;30;20814;-50
2024/02/13 10:55:49;;;;;;;12.33;11.60;;;13.10;99.90;;;;;;4737510;30;20573;-53
2024/02/13 10:58:15;;;;;;;12.83;12.13;;;13.60;99.90;;;;;;4739666;30;20450;-57
2024/02/13 11:00:41;;;;;;;11.40;10.70;;;13.70;99.90;;;;;;4738635;30;20592;-53
2024/02/13 11:03:09;;;;;;;13.43;12.60;;;13.30;99.90;;;;;;4739918;30;20721;-54
2024/02/13 11:05:36;;;;;;;13.37;12.47;;;12.90;99.90;;;;;;4726905;30;20451;-44
2024/02/13 11:08:02;;;;;;;12.30;11.60;;;12.50;99.90;;;;;;4726765;30;20525;-45
2024/02/13 11:10:34;;;;;;;12.70;12.00;;;12.30;99.90;;;;;;4733657;30;20522;-48
2024/02/13 11:13:01;;;;;;;12.83;12.07;;;12.70;99.90;;;;;;4740833;30;20621;-49
2024/02/13 11:15:29;;;;;;;13.00;12.20;;;13.20;99.90;;;;;;4732894;30;20450;-43
2024/02/13 11:17:56;;;;;;;12.30;11.50;;;13.40;99.90;;;;;;4737529;30;20428;-45
2024/02/13 11:20:25;;;;;;;12.83;11.93;;;13.00;99.90;;;;;;4735463;30;20866;-45
2024/02/13 11:22:56;;;;;;;12.00;11.40;;;12.50;99.90;;;;;;4725480;30;20431;-42
2024/02/13 11:25:29;;;;;;;12.97;12.17;;;11.80;99.90;;;;;;4734770;30;20541;-42
2024/02/13 11:28:03;;;;;;;13.27;12.43;;;11.40;99.90;;;;;;4749845;30;20768;-45
2024/02/13 11:30:29;;;;;;;12.43;11.63;;;11.30;99.90;;;;;;4725460;30;20455;-44
2024/02/13 11:33:19;;;;;;;13.03;12.10;;;11.30;99.90;;;;;;4728767;30;20572;-45
2024/02/13 11:35:52;;;;;;;12.40;11.80;;;11.70;99.90;;;;;;4732001;30;20850;-42
2024/02/13 11:38:20;;;;;;;12.00;11.37;;;11.60;99.90;;;;;;4735889;30;20419;-44
2024/02/13 11:40:55;;;;;;;12.23;11.53;;;11.60;99.90;;;;;;4727181;30;20443;-48
2024/02/13 11:43:27;;;;;;;13.43;12.53;;;11.30;99.90;;;;;;4737285;30;20451;-45
2024/02/13 11:45:56;;;;;;;12.60;11.80;;;11.30;99.90;;;;;;4727738;30;20431;-43
2024/02/13 11:48:28;;;;;;;12.50;11.60;;;11.50;99.90;;;;;;4730658;30;20794;-45
2024/02/13 11:50:57;;;;;;;13.23;12.23;;;11.80;99.90;;;;;;4730683;30;20486;-44
2024/02/13 11:53:27;;;;;;;13.80;12.90;;;11.90;99.90;;;;;;4740175;30;20478;-42
2024/02/13 11:55:54;;;;;;;13.73;12.93;;;12.00;99.90;;;;;;4737416;30;20478;-43
2024/02/13 11:58:21;;;;;;;13.60;12.53;;;12.30;99.90;;;;;;4735460;30;20446;-50
2024/02/13 12:01:03;;;;;;;13.33;12.33;;;12.80;99.90;;;;;;4731417;30;20420;-42
2024/02/13 12:03:30;;;;;;;13.70;12.90;;;13.10;99.90;;;;;;4732518;30;20769;-43
2024/02/13 12:06:05;;;;;;;13.23;12.43;;;13.50;99.90;;;;;;4735659;30;20427;-45
2024/02/13 12:08:36;;;;;;;12.50;11.80;;;13.90;99.90;;;;;;4740070;30;20425;-41
2024/02/13 12:11:03;;;;;;;13.43;12.63;;;14.60;99.90;;;;;;4734764;30;20442;-45
2024/02/13 12:13:33;;;;;;;13.23;12.40;;;14.60;99.90;;;;;;4741046;30;20493;-45
2024/02/13 12:15:59;;;;;;;13.80;13.00;;;14.90;99.90;;;;;;4736523;30;20477;-51
2024/02/13 12:18:31;;;;;;;13.73;12.93;;;15.10;99.90;;;;;;4743639;30;20911;-51
2024/02/13 12:20:58;;;;;;;14.20;13.30;;;15.20;99.90;;;;;;4736149;30;20505;-54
2024/02/13 12:23:25;;;;;;;13.80;13.10;;;15.50;99.90;;;;;;4740481;30;20488;-50
2024/02/13 12:26:01;;;;;;;13.63;12.73;;;15.20;99.90;;;;;;4736628;30;20456;-53
2024/02/13 12:28:28;;;;;;;13.50;12.60;;;14.60;99.90;;;;;;4734064;30;20778;-53
2024/02/13 12:30:55;;;;;;;14.10;13.20;;;13.90;99.90;;;;;;4747161;30;20443;-53
2024/02/13 12:33:22;;;;;;;12.77;11.87;;;14.10;99.90;;;;;;4740178;30;20486;-52
2024/02/13 12:36:18;;;;;;;13.37;12.57;;;14.30;99.90;;;;;;4738403;30;20874;-53
2024/02/13 12:38:45;;;;;;;14.03;13.13;;;14.50;99.90;;;;;;4737562;30;20433;-52